sensor_id;sensor_type;location;lat;lon;timestamp;P1;durP1;ratioP1;P2;durP2;ratioP2
75386;SDS011;63966;47.914;22.266;2023-02-16T00:00:03;40.42;;;16.00;;
75386;SDS011;63966;47.914;22.266;2023-02-16T00:03:13;41.83;;;16.93;;
75386;SDS011;63966;47.914;22.266;2023-02-16T00:06:18;36.42;;;15.95;;
75386;SDS011;63966;47.914;22.266;2023-02-16T00:09:22;40.38;;;15.23;;
75386;SDS011;63966;47.914;22.266;2023-02-16T00:12:26;37.00;;;15.40;;
75386;SDS011;63966;47.914;22.266;2023-02-16T00:15:48;39.60;;;15.43;;
75386;SDS011;63966;47.914;22.266;2023-02-16T00:18:52;53.00;;;19.63;;
75386;SDS011;63966;47.914;22.266;2023-02-16T00:21:56;51.08;;;19.40;;
75386;SDS011;63966;47.914;22.266;2023-02-16T00:25:00;39.65;;;17.38;;
75386;SDS011;63966;47.914;22.266;2023-02-16T00:28:04;44.08;;;17.52;;
75386;SDS011;63966;47.914;22.266;2023-02-16T00:31:20;47.90;;;18.75;;
75386;SDS011;63966;47.914;22.266;2023-02-16T00:34:27;44.70;;;21.70;;
75386;SDS011;63966;47.914;22.266;2023-02-16T00:37:57;53.88;;;20.50;;
75386;SDS011;63966;47.914;22.266;2023-02-16T00:41:00;56.30;;;21.50;;
75386;SDS011;63966;47.914;22.266;2023-02-16T00:44:17;54.47;;;22.03;;
75386;SDS011;63966;47.914;22.266;2023-02-16T00:50:37;41.42;;;17.05;;
75386;SDS011;63966;47.914;22.266;2023-02-16T00:53:40;43.30;;;18.42;;
75386;SDS011;63966;47.914;22.266;2023-02-16T00:56:47;54.57;;;23.23;;
75386;SDS011;63966;47.914;22.266;2023-02-16T00:59:55;60.85;;;24.50;;
75386;SDS011;63966;47.914;22.266;2023-02-16T01:03:05;70.63;;;30.58;;
75386;SDS011;63966;47.914;22.266;2023-02-16T01:06:11;71.22;;;29.45;;
75386;SDS011;63966;47.914;22.266;2023-02-16T01:09:33;65.72;;;27.13;;
75386;SDS011;63966;47.914;22.266;2023-02-16T01:12:55;53.80;;;23.90;;
75386;SDS011;63966;47.914;22.266;2023-02-16T01:15:58;68.55;;;26.50;;
75386;SDS011;63966;47.914;22.266;2023-02-16T01:19:03;66.07;;;26.77;;
75386;SDS011;63966;47.914;22.266;2023-02-16T01:22:07;78.45;;;29.85;;
75386;SDS011;63966;47.914;22.266;2023-02-16T01:25:11;67.32;;;27.50;;
75386;SDS011;63966;47.914;22.266;2023-02-16T01:28:20;82.50;;;31.42;;
75386;SDS011;63966;47.914;22.266;2023-02-16T01:31:25;82.25;;;30.30;;
75386;SDS011;63966;47.914;22.266;2023-02-16T01:34:28;63.17;;;25.55;;
75386;SDS011;63966;47.914;22.266;2023-02-16T01:37:33;55.88;;;24.35;;
75386;SDS011;63966;47.914;22.266;2023-02-16T01:40:37;59.10;;;23.23;;
75386;SDS011;63966;47.914;22.266;2023-02-16T01:47:04;55.83;;;22.25;;
75386;SDS011;63966;47.914;22.266;2023-02-16T01:50:20;39.93;;;17.83;;
75386;SDS011;63966;47.914;22.266;2023-02-16T01:53:27;44.25;;;16.38;;
75386;SDS011;63966;47.914;22.266;2023-02-16T01:56:46;48.45;;;18.60;;
75386;SDS011;63966;47.914;22.266;2023-02-16T02:02:58;54.03;;;21.33;;
75386;SDS011;63966;47.914;22.266;2023-02-16T02:06:25;55.28;;;20.77;;
75386;SDS011;63966;47.914;22.266;2023-02-16T02:09:45;52.17;;;20.17;;
75386;SDS011;63966;47.914;22.266;2023-02-16T02:13:07;48.57;;;19.30;;
75386;SDS011;63966;47.914;22.266;2023-02-16T02:16:23;61.45;;;24.38;;
75386;SDS011;63966;47.914;22.266;2023-02-16T02:19:28;54.50;;;21.10;;
75386;SDS011;63966;47.914;22.266;2023-02-16T02:26:11;51.90;;;22.55;;
75386;SDS011;63966;47.914;22.266;2023-02-16T02:29:55;53.22;;;20.63;;
75386;SDS011;63966;47.914;22.266;2023-02-16T02:37:01;53.22;;;20.55;;
75386;SDS011;63966;47.914;22.266;2023-02-16T02:46:59;49.87;;;21.20;;
75386;SDS011;63966;47.914;22.266;2023-02-16T02:50:21;59.25;;;22.30;;
75386;SDS011;63966;47.914;22.266;2023-02-16T02:53:51;51.47;;;21.25;;
75386;SDS011;63966;47.914;22.266;2023-02-16T03:01:00;47.92;;;20.17;;
75386;SDS011;63966;47.914;22.266;2023-02-16T03:04:05;45.00;;;18.42;;
75386;SDS011;63966;47.914;22.266;2023-02-16T03:07:10;51.80;;;19.65;;
75386;SDS011;63966;47.914;22.266;2023-02-16T03:10:16;55.03;;;20.90;;
75386;SDS011;63966;47.914;22.266;2023-02-16T03:13:44;48.47;;;20.02;;
75386;SDS011;63966;47.914;22.266;2023-02-16T03:16:55;46.97;;;18.85;;
75386;SDS011;63966;47.914;22.266;2023-02-16T03:20:19;53.67;;;20.37;;
75386;SDS011;63966;47.914;22.266;2023-02-16T03:23:41;47.90;;;19.85;;
75386;SDS011;63966;47.914;22.266;2023-02-16T03:27:05;50.30;;;19.00;;
75386;SDS011;63966;47.914;22.266;2023-02-16T03:30:28;55.97;;;20.30;;
75386;SDS011;63966;47.914;22.266;2023-02-16T03:33:33;49.58;;;19.15;;
75386;SDS011;63966;47.914;22.266;2023-02-16T03:36:39;59.17;;;20.00;;
75386;SDS011;63966;47.914;22.266;2023-02-16T03:39:44;51.15;;;21.00;;
75386;SDS011;63966;47.914;22.266;2023-02-16T03:43:09;53.50;;;20.60;;
75386;SDS011;63966;47.914;22.266;2023-02-16T03:46:13;59.10;;;21.42;;
75386;SDS011;63966;47.914;22.266;2023-02-16T03:49:17;43.00;;;18.52;;
75386;SDS011;63966;47.914;22.266;2023-02-16T03:52:22;46.60;;;18.97;;
75386;SDS011;63966;47.914;22.266;2023-02-16T03:55:25;49.63;;;19.50;;
75386;SDS011;63966;47.914;22.266;2023-02-16T03:58:30;45.60;;;20.08;;
75386;SDS011;63966;47.914;22.266;2023-02-16T04:01:34;58.90;;;21.08;;
75386;SDS011;63966;47.914;22.266;2023-02-16T04:04:38;43.03;;;18.38;;
75386;SDS011;63966;47.914;22.266;2023-02-16T04:07:41;50.92;;;19.33;;
75386;SDS011;63966;47.914;22.266;2023-02-16T04:10:45;52.65;;;19.15;;
75386;SDS011;63966;47.914;22.266;2023-02-16T04:13:48;45.60;;;15.90;;
75386;SDS011;63966;47.914;22.266;2023-02-16T04:16:51;40.10;;;15.80;;
75386;SDS011;63966;47.914;22.266;2023-02-16T04:19:57;45.63;;;18.58;;
75386;SDS011;63966;47.914;22.266;2023-02-16T04:23:01;50.40;;;20.50;;
75386;SDS011;63966;47.914;22.266;2023-02-16T04:26:05;54.20;;;19.73;;
75386;SDS011;63966;47.914;22.266;2023-02-16T04:29:08;51.50;;;19.52;;
75386;SDS011;63966;47.914;22.266;2023-02-16T04:32:12;53.90;;;20.77;;
75386;SDS011;63966;47.914;22.266;2023-02-16T04:35:15;46.33;;;18.48;;
75386;SDS011;63966;47.914;22.266;2023-02-16T04:38:20;52.47;;;20.52;;
75386;SDS011;63966;47.914;22.266;2023-02-16T04:41:23;46.53;;;18.83;;
75386;SDS011;63966;47.914;22.266;2023-02-16T04:44:28;54.87;;;20.43;;
75386;SDS011;63966;47.914;22.266;2023-02-16T04:47:31;53.47;;;21.60;;
75386;SDS011;63966;47.914;22.266;2023-02-16T04:50:35;51.92;;;19.35;;
75386;SDS011;63966;47.914;22.266;2023-02-16T04:53:38;55.43;;;21.00;;
75386;SDS011;63966;47.914;22.266;2023-02-16T04:56:42;55.97;;;20.60;;
75386;SDS011;63966;47.914;22.266;2023-02-16T04:59:47;52.40;;;21.10;;
75386;SDS011;63966;47.914;22.266;2023-02-16T05:02:50;52.78;;;19.60;;
75386;SDS011;63966;47.914;22.266;2023-02-16T05:05:54;51.53;;;20.63;;
75386;SDS011;63966;47.914;22.266;2023-02-16T05:08:57;47.80;;;19.73;;
75386;SDS011;63966;47.914;22.266;2023-02-16T05:12:01;53.65;;;19.38;;
75386;SDS011;63966;47.914;22.266;2023-02-16T05:15:23;43.63;;;18.67;;
75386;SDS011;63966;47.914;22.266;2023-02-16T05:18:26;44.20;;;19.17;;
75386;SDS011;63966;47.914;22.266;2023-02-16T05:21:30;48.22;;;20.00;;
75386;SDS011;63966;47.914;22.266;2023-02-16T05:24:33;50.00;;;20.70;;
75386;SDS011;63966;47.914;22.266;2023-02-16T05:27:37;50.85;;;19.88;;
75386;SDS011;63966;47.914;22.266;2023-02-16T05:30:41;55.20;;;22.20;;
75386;SDS011;63966;47.914;22.266;2023-02-16T05:33:45;57.75;;;21.73;;
75386;SDS011;63966;47.914;22.266;2023-02-16T05:36:49;54.20;;;21.27;;
75386;SDS011;63966;47.914;22.266;2023-02-16T05:39:52;58.38;;;22.17;;
75386;SDS011;63966;47.914;22.266;2023-02-16T05:42:56;50.85;;;19.40;;
75386;SDS011;63966;47.914;22.266;2023-02-16T05:45:59;50.13;;;20.97;;
75386;SDS011;63966;47.914;22.266;2023-02-16T05:49:08;53.88;;;22.02;;
75386;SDS011;63966;47.914;22.266;2023-02-16T05:52:12;54.58;;;21.67;;
75386;SDS011;63966;47.914;22.266;2023-02-16T05:55:15;56.10;;;22.97;;
75386;SDS011;63966;47.914;22.266;2023-02-16T05:58:19;58.85;;;23.27;;
75386;SDS011;63966;47.914;22.266;2023-02-16T06:01:25;61.35;;;23.70;;
75386;SDS011;63966;47.914;22.266;2023-02-16T06:04:29;55.38;;;22.30;;
75386;SDS011;63966;47.914;22.266;2023-02-16T06:07:33;58.28;;;23.80;;
75386;SDS011;63966;47.914;22.266;2023-02-16T06:10:37;63.13;;;26.77;;
75386;SDS011;63966;47.914;22.266;2023-02-16T06:13:40;60.25;;;24.70;;
75386;SDS011;63966;47.914;22.266;2023-02-16T06:16:45;63.03;;;25.53;;
75386;SDS011;63966;47.914;22.266;2023-02-16T06:19:50;71.38;;;27.08;;
75386;SDS011;63966;47.914;22.266;2023-02-16T06:22:53;75.43;;;30.20;;
75386;SDS011;63966;47.914;22.266;2023-02-16T06:25:56;59.93;;;25.77;;
75386;SDS011;63966;47.914;22.266;2023-02-16T06:29:00;60.63;;;24.52;;
75386;SDS011;63966;47.914;22.266;2023-02-16T06:32:04;67.55;;;26.88;;
75386;SDS011;63966;47.914;22.266;2023-02-16T06:35:08;63.42;;;25.23;;
75386;SDS011;63966;47.914;22.266;2023-02-16T06:38:11;59.53;;;23.35;;
75386;SDS011;63966;47.914;22.266;2023-02-16T06:41:15;62.95;;;26.33;;
75386;SDS011;63966;47.914;22.266;2023-02-16T06:44:32;56.05;;;22.83;;
75386;SDS011;63966;47.914;22.266;2023-02-16T06:47:36;55.60;;;23.17;;
75386;SDS011;63966;47.914;22.266;2023-02-16T06:50:40;51.47;;;22.88;;
75386;SDS011;63966;47.914;22.266;2023-02-16T06:53:43;54.13;;;23.55;;
75386;SDS011;63966;47.914;22.266;2023-02-16T06:56:47;51.67;;;23.08;;
75386;SDS011;63966;47.914;22.266;2023-02-16T06:59:51;59.33;;;24.65;;
75386;SDS011;63966;47.914;22.266;2023-02-16T07:02:55;54.50;;;23.95;;
75386;SDS011;63966;47.914;22.266;2023-02-16T07:05:58;56.70;;;23.70;;
75386;SDS011;63966;47.914;22.266;2023-02-16T07:09:02;52.43;;;23.90;;
75386;SDS011;63966;47.914;22.266;2023-02-16T07:12:06;54.28;;;22.83;;
75386;SDS011;63966;47.914;22.266;2023-02-16T07:15:10;53.67;;;23.73;;
75386;SDS011;63966;47.914;22.266;2023-02-16T07:18:14;55.00;;;23.88;;
75386;SDS011;63966;47.914;22.266;2023-02-16T07:21:18;51.67;;;23.00;;
75386;SDS011;63966;47.914;22.266;2023-02-16T07:24:22;51.53;;;22.80;;
75386;SDS011;63966;47.914;22.266;2023-02-16T07:27:25;50.05;;;23.02;;
75386;SDS011;63966;47.914;22.266;2023-02-16T07:30:29;48.97;;;22.58;;
75386;SDS011;63966;47.914;22.266;2023-02-16T07:33:33;51.40;;;23.33;;
75386;SDS011;63966;47.914;22.266;2023-02-16T07:36:36;50.75;;;22.42;;
75386;SDS011;63966;47.914;22.266;2023-02-16T07:39:40;52.13;;;23.10;;
75386;SDS011;63966;47.914;22.266;2023-02-16T07:42:43;48.63;;;21.15;;
75386;SDS011;63966;47.914;22.266;2023-02-16T07:45:47;47.72;;;21.88;;
75386;SDS011;63966;47.914;22.266;2023-02-16T07:48:51;53.38;;;22.95;;
75386;SDS011;63966;47.914;22.266;2023-02-16T07:51:55;47.38;;;23.02;;
75386;SDS011;63966;47.914;22.266;2023-02-16T07:54:59;52.23;;;23.67;;
75386;SDS011;63966;47.914;22.266;2023-02-16T07:58:02;48.60;;;23.03;;
75386;SDS011;63966;47.914;22.266;2023-02-16T08:01:09;46.75;;;23.23;;
75386;SDS011;63966;47.914;22.266;2023-02-16T08:04:17;46.97;;;22.90;;
75386;SDS011;63966;47.914;22.266;2023-02-16T08:07:20;48.70;;;22.50;;
75386;SDS011;63966;47.914;22.266;2023-02-16T08:10:24;47.50;;;22.47;;
75386;SDS011;63966;47.914;22.266;2023-02-16T08:13:29;48.58;;;21.40;;
75386;SDS011;63966;47.914;22.266;2023-02-16T08:16:33;48.20;;;22.38;;
75386;SDS011;63966;47.914;22.266;2023-02-16T08:19:36;44.67;;;21.30;;
75386;SDS011;63966;47.914;22.266;2023-02-16T08:22:40;51.35;;;22.63;;
75386;SDS011;63966;47.914;22.266;2023-02-16T08:25:44;45.97;;;21.37;;
75386;SDS011;63966;47.914;22.266;2023-02-16T08:28:48;44.50;;;20.35;;
75386;SDS011;63966;47.914;22.266;2023-02-16T08:31:52;47.15;;;22.15;;
75386;SDS011;63966;47.914;22.266;2023-02-16T08:34:58;42.97;;;20.95;;
75386;SDS011;63966;47.914;22.266;2023-02-16T08:38:02;46.78;;;21.48;;
75386;SDS011;63966;47.914;22.266;2023-02-16T08:41:10;50.20;;;21.73;;
75386;SDS011;63966;47.914;22.266;2023-02-16T08:44:14;48.72;;;21.65;;
75386;SDS011;63966;47.914;22.266;2023-02-16T08:47:19;48.22;;;22.10;;
75386;SDS011;63966;47.914;22.266;2023-02-16T08:50:23;49.92;;;21.85;;
75386;SDS011;63966;47.914;22.266;2023-02-16T08:53:27;52.67;;;21.90;;
75386;SDS011;63966;47.914;22.266;2023-02-16T08:56:34;52.00;;;23.10;;
75386;SDS011;63966;47.914;22.266;2023-02-16T08:59:37;51.28;;;22.27;;
75386;SDS011;63966;47.914;22.266;2023-02-16T09:02:41;44.47;;;19.98;;
75386;SDS011;63966;47.914;22.266;2023-02-16T09:05:48;50.72;;;22.92;;
75386;SDS011;63966;47.914;22.266;2023-02-16T09:08:53;45.65;;;19.88;;
75386;SDS011;63966;47.914;22.266;2023-02-16T09:11:58;48.13;;;22.63;;
75386;SDS011;63966;47.914;22.266;2023-02-16T09:15:03;44.20;;;20.33;;
75386;SDS011;63966;47.914;22.266;2023-02-16T09:18:07;47.88;;;22.13;;
75386;SDS011;63966;47.914;22.266;2023-02-16T09:21:14;45.80;;;21.10;;
75386;SDS011;63966;47.914;22.266;2023-02-16T09:24:22;48.13;;;21.80;;
75386;SDS011;63966;47.914;22.266;2023-02-16T09:27:26;49.10;;;21.93;;
75386;SDS011;63966;47.914;22.266;2023-02-16T09:30:30;43.28;;;20.23;;
75386;SDS011;63966;47.914;22.266;2023-02-16T09:33:34;42.97;;;17.27;;
75386;SDS011;63966;47.914;22.266;2023-02-16T09:36:37;48.15;;;20.65;;
75386;SDS011;63966;47.914;22.266;2023-02-16T09:39:41;41.78;;;19.27;;
75386;SDS011;63966;47.914;22.266;2023-02-16T09:46:19;50.95;;;20.77;;
75386;SDS011;63966;47.914;22.266;2023-02-16T09:49:30;46.30;;;20.48;;
75386;SDS011;63966;47.914;22.266;2023-02-16T09:52:43;45.17;;;20.88;;
75386;SDS011;63966;47.914;22.266;2023-02-16T09:56:42;41.22;;;19.73;;
75386;SDS011;63966;47.914;22.266;2023-02-16T09:59:42;47.17;;;20.80;;
75386;SDS011;63966;47.914;22.266;2023-02-16T10:09:47;51.60;;;24.48;;
75386;SDS011;63966;47.914;22.266;2023-02-16T10:12:59;47.08;;;20.60;;
75386;SDS011;63966;47.914;22.266;2023-02-16T10:16:11;43.27;;;20.07;;
75386;SDS011;63966;47.914;22.266;2023-02-16T10:19:27;46.40;;;20.10;;
75386;SDS011;63966;47.914;22.266;2023-02-16T10:22:41;45.58;;;19.67;;
75386;SDS011;63966;47.914;22.266;2023-02-16T10:29:34;44.78;;;21.67;;
75386;SDS011;63966;47.914;22.266;2023-02-16T10:32:38;44.83;;;20.73;;
75386;SDS011;63966;47.914;22.266;2023-02-16T10:36:00;73.33;;;34.93;;
75386;SDS011;63966;47.914;22.266;2023-02-16T10:39:21;37.35;;;18.17;;
75386;SDS011;63966;47.914;22.266;2023-02-16T10:42:30;36.35;;;17.70;;
75386;SDS011;63966;47.914;22.266;2023-02-16T10:48:55;44.57;;;19.97;;
75386;SDS011;63966;47.914;22.266;2023-02-16T10:52:03;44.17;;;20.53;;
75386;SDS011;63966;47.914;22.266;2023-02-16T10:55:10;45.63;;;22.88;;
75386;SDS011;63966;47.914;22.266;2023-02-16T10:58:16;46.97;;;22.45;;
75386;SDS011;63966;47.914;22.266;2023-02-16T11:01:35;41.75;;;18.60;;
75386;SDS011;63966;47.914;22.266;2023-02-16T11:04:44;35.73;;;17.77;;
75386;SDS011;63966;47.914;22.266;2023-02-16T11:07:54;48.93;;;25.87;;
75386;SDS011;63966;47.914;22.266;2023-02-16T11:10:58;55.92;;;27.67;;
75386;SDS011;63966;47.914;22.266;2023-02-16T11:14:19;39.67;;;19.17;;
75386;SDS011;63966;47.914;22.266;2023-02-16T11:17:25;59.08;;;25.88;;
75386;SDS011;63966;47.914;22.266;2023-02-16T11:23:56;39.07;;;18.27;;
75386;SDS011;63966;47.914;22.266;2023-02-16T11:27:04;33.85;;;16.95;;
75386;SDS011;63966;47.914;22.266;2023-02-16T11:30:15;38.05;;;17.10;;
75386;SDS011;63966;47.914;22.266;2023-02-16T11:33:25;36.72;;;17.30;;
75386;SDS011;63966;47.914;22.266;2023-02-16T11:36:35;34.97;;;16.93;;
75386;SDS011;63966;47.914;22.266;2023-02-16T11:39:40;37.70;;;17.43;;
75386;SDS011;63966;47.914;22.266;2023-02-16T11:43:18;43.67;;;19.80;;
75386;SDS011;63966;47.914;22.266;2023-02-16T11:46:48;39.13;;;17.95;;
75386;SDS011;63966;47.914;22.266;2023-02-16T11:53:30;34.30;;;17.87;;
75386;SDS011;63966;47.914;22.266;2023-02-16T11:56:36;37.43;;;17.93;;
75386;SDS011;63966;47.914;22.266;2023-02-16T11:59:41;36.90;;;16.70;;
75386;SDS011;63966;47.914;22.266;2023-02-16T12:03:05;33.35;;;16.42;;
75386;SDS011;63966;47.914;22.266;2023-02-16T12:13:13;34.97;;;16.60;;
75386;SDS011;63966;47.914;22.266;2023-02-16T12:27:00;31.27;;;17.17;;
75386;SDS011;63966;47.914;22.266;2023-02-16T12:40:19;35.13;;;17.40;;
75386;SDS011;63966;47.914;22.266;2023-02-16T12:43:45;35.00;;;16.53;;
75386;SDS011;63966;47.914;22.266;2023-02-16T12:47:00;31.00;;;14.67;;
75386;SDS011;63966;47.914;22.266;2023-02-16T12:50:18;29.83;;;15.20;;
75386;SDS011;63966;47.914;22.266;2023-02-16T12:56:51;29.00;;;14.43;;
75386;SDS011;63966;47.914;22.266;2023-02-16T13:00:19;31.77;;;14.07;;
75386;SDS011;63966;47.914;22.266;2023-02-16T13:03:37;31.53;;;14.37;;
75386;SDS011;63966;47.914;22.266;2023-02-16T13:06:52;36.58;;;17.38;;
75386;SDS011;63966;47.914;22.266;2023-02-16T13:10:23;32.72;;;14.43;;
75386;SDS011;63966;47.914;22.266;2023-02-16T13:13:45;34.67;;;16.90;;
75386;SDS011;63966;47.914;22.266;2023-02-16T13:16:51;32.57;;;16.50;;
75386;SDS011;63966;47.914;22.266;2023-02-16T13:19:59;31.17;;;15.70;;
75386;SDS011;63966;47.914;22.266;2023-02-16T13:27:01;30.17;;;15.73;;
75386;SDS011;63966;47.914;22.266;2023-02-16T13:33:53;32.87;;;15.50;;
75386;SDS011;63966;47.914;22.266;2023-02-16T13:44:21;31.23;;;15.50;;
75386;SDS011;63966;47.914;22.266;2023-02-16T13:47:46;34.83;;;16.10;;
75386;SDS011;63966;47.914;22.266;2023-02-16T13:50:54;39.33;;;18.43;;
75386;SDS011;63966;47.914;22.266;2023-02-16T13:54:03;32.40;;;16.23;;
75386;SDS011;63966;47.914;22.266;2023-02-16T13:57:11;37.63;;;19.48;;
75386;SDS011;63966;47.914;22.266;2023-02-16T14:00:26;38.80;;;19.17;;
75386;SDS011;63966;47.914;22.266;2023-02-16T14:03:38;37.50;;;16.90;;
75386;SDS011;63966;47.914;22.266;2023-02-16T14:06:41;39.63;;;18.13;;
75386;SDS011;63966;47.914;22.266;2023-02-16T14:12:50;40.50;;;21.05;;
75386;SDS011;63966;47.914;22.266;2023-02-16T14:15:55;35.58;;;16.85;;
75386;SDS011;63966;47.914;22.266;2023-02-16T14:19:15;44.13;;;19.63;;
75386;SDS011;63966;47.914;22.266;2023-02-16T14:25:42;41.47;;;18.70;;
75386;SDS011;63966;47.914;22.266;2023-02-16T14:29:06;34.78;;;16.95;;
75386;SDS011;63966;47.914;22.266;2023-02-16T14:32:29;38.80;;;17.80;;
75386;SDS011;63966;47.914;22.266;2023-02-16T14:35:40;37.58;;;17.33;;
75386;SDS011;63966;47.914;22.266;2023-02-16T14:38:48;43.30;;;19.93;;
75386;SDS011;63966;47.914;22.266;2023-02-16T14:41:53;39.73;;;19.33;;
75386;SDS011;63966;47.914;22.266;2023-02-16T14:58:55;44.13;;;20.67;;
75386;SDS011;63966;47.914;22.266;2023-02-16T15:05:41;45.38;;;21.80;;
75386;SDS011;63966;47.914;22.266;2023-02-16T15:08:52;46.13;;;21.70;;
75386;SDS011;63966;47.914;22.266;2023-02-16T15:12:03;50.23;;;23.93;;
75386;SDS011;63966;47.914;22.266;2023-02-16T15:15:59;47.57;;;21.87;;
75386;SDS011;63966;47.914;22.266;2023-02-16T15:18:58;60.60;;;24.15;;
75386;SDS011;63966;47.914;22.266;2023-02-16T15:22:16;62.22;;;25.85;;
75386;SDS011;63966;47.914;22.266;2023-02-16T15:25:26;89.22;;;31.90;;
75386;SDS011;63966;47.914;22.266;2023-02-16T15:28:36;76.30;;;29.53;;
75386;SDS011;63966;47.914;22.266;2023-02-16T15:31:41;75.50;;;31.47;;
75386;SDS011;63966;47.914;22.266;2023-02-16T15:34:45;65.40;;;31.13;;
75386;SDS011;63966;47.914;22.266;2023-02-16T15:38:01;65.75;;;32.53;;
75386;SDS011;63966;47.914;22.266;2023-02-16T15:41:13;67.95;;;32.65;;
75386;SDS011;63966;47.914;22.266;2023-02-16T15:44:30;58.47;;;28.53;;
75386;SDS011;63966;47.914;22.266;2023-02-16T15:47:37;64.30;;;27.67;;
75386;SDS011;63966;47.914;22.266;2023-02-16T15:50:41;60.28;;;26.42;;
75386;SDS011;63966;47.914;22.266;2023-02-16T15:53:51;58.83;;;26.67;;
75386;SDS011;63966;47.914;22.266;2023-02-16T15:56:57;57.30;;;26.45;;
75386;SDS011;63966;47.914;22.266;2023-02-16T16:00:18;55.13;;;26.70;;
75386;SDS011;63966;47.914;22.266;2023-02-16T16:03:23;57.30;;;26.00;;
75386;SDS011;63966;47.914;22.266;2023-02-16T16:06:31;58.30;;;28.35;;
75386;SDS011;63966;47.914;22.266;2023-02-16T16:09:40;68.85;;;31.58;;
75386;SDS011;63966;47.914;22.266;2023-02-16T16:12:44;62.67;;;28.55;;
75386;SDS011;63966;47.914;22.266;2023-02-16T16:15:50;67.87;;;30.73;;
75386;SDS011;63966;47.914;22.266;2023-02-16T16:18:55;84.37;;;38.50;;
75386;SDS011;63966;47.914;22.266;2023-02-16T16:22:53;108.57;;;44.63;;
75386;SDS011;63966;47.914;22.266;2023-02-16T16:25:42;113.13;;;51.47;;
75386;SDS011;63966;47.914;22.266;2023-02-16T16:28:48;102.47;;;43.95;;
75386;SDS011;63966;47.914;22.266;2023-02-16T16:31:52;95.47;;;43.53;;
75386;SDS011;63966;47.914;22.266;2023-02-16T16:34:56;89.67;;;40.13;;
75386;SDS011;63966;47.914;22.266;2023-02-16T16:38:00;78.78;;;37.90;;
75386;SDS011;63966;47.914;22.266;2023-02-16T16:41:04;74.50;;;36.42;;
75386;SDS011;63966;47.914;22.266;2023-02-16T16:47:39;78.13;;;37.97;;
75386;SDS011;63966;47.914;22.266;2023-02-16T16:50:43;78.57;;;37.10;;
75386;SDS011;63966;47.914;22.266;2023-02-16T16:53:56;72.53;;;33.97;;
75386;SDS011;63966;47.914;22.266;2023-02-16T16:57:06;78.20;;;36.33;;
75386;SDS011;63966;47.914;22.266;2023-02-16T17:00:17;81.18;;;37.58;;
75386;SDS011;63966;47.914;22.266;2023-02-16T17:03:21;98.80;;;42.50;;
75386;SDS011;63966;47.914;22.266;2023-02-16T17:06:25;101.37;;;45.03;;
75386;SDS011;63966;47.914;22.266;2023-02-16T17:09:30;92.22;;;42.78;;
75386;SDS011;63966;47.914;22.266;2023-02-16T17:12:33;102.38;;;47.78;;
75386;SDS011;63966;47.914;22.266;2023-02-16T17:15:48;93.75;;;43.13;;
75386;SDS011;63966;47.914;22.266;2023-02-16T17:19:00;100.73;;;48.07;;
75386;SDS011;63966;47.914;22.266;2023-02-16T17:22:14;101.97;;;45.90;;
75386;SDS011;63966;47.914;22.266;2023-02-16T17:25:19;82.05;;;42.13;;
75386;SDS011;63966;47.914;22.266;2023-02-16T17:28:22;93.32;;;43.47;;
75386;SDS011;63966;47.914;22.266;2023-02-16T17:31:26;90.82;;;43.20;;
75386;SDS011;63966;47.914;22.266;2023-02-16T17:34:30;87.43;;;40.63;;
75386;SDS011;63966;47.914;22.266;2023-02-16T17:37:33;89.17;;;39.33;;
75386;SDS011;63966;47.914;22.266;2023-02-16T17:40:38;85.38;;;40.72;;
75386;SDS011;63966;47.914;22.266;2023-02-16T17:43:44;71.57;;;33.97;;
75386;SDS011;63966;47.914;22.266;2023-02-16T17:46:48;83.07;;;37.13;;
75386;SDS011;63966;47.914;22.266;2023-02-16T17:49:52;81.53;;;37.67;;
75386;SDS011;63966;47.914;22.266;2023-02-16T17:52:56;73.60;;;32.73;;
75386;SDS011;63966;47.914;22.266;2023-02-16T17:56:02;63.55;;;32.65;;
75386;SDS011;63966;47.914;22.266;2023-02-16T17:59:08;70.38;;;33.10;;
75386;SDS011;63966;47.914;22.266;2023-02-16T18:02:16;71.50;;;33.92;;
75386;SDS011;63966;47.914;22.266;2023-02-16T18:05:21;58.93;;;28.73;;
75386;SDS011;63966;47.914;22.266;2023-02-16T18:08:24;51.97;;;26.40;;
75386;SDS011;63966;47.914;22.266;2023-02-16T18:11:28;56.45;;;28.20;;
75386;SDS011;63966;47.914;22.266;2023-02-16T18:14:31;138.18;;;55.22;;
75386;SDS011;63966;47.914;22.266;2023-02-16T18:17:37;148.82;;;66.13;;
75386;SDS011;63966;47.914;22.266;2023-02-16T18:20:41;82.67;;;39.70;;
75386;SDS011;63966;47.914;22.266;2023-02-16T18:23:46;93.40;;;44.10;;
75386;SDS011;63966;47.914;22.266;2023-02-16T18:26:49;163.70;;;74.20;;
75386;SDS011;63966;47.914;22.266;2023-02-16T18:29:53;96.30;;;49.13;;
75386;SDS011;63966;47.914;22.266;2023-02-16T18:32:57;66.43;;;34.22;;
75386;SDS011;63966;47.914;22.266;2023-02-16T18:36:01;45.77;;;25.10;;
75386;SDS011;63966;47.914;22.266;2023-02-16T18:39:06;56.77;;;27.33;;
75386;SDS011;63966;47.914;22.266;2023-02-16T18:42:10;54.08;;;26.60;;
75386;SDS011;63966;47.914;22.266;2023-02-16T18:45:15;60.45;;;30.10;;
75386;SDS011;63966;47.914;22.266;2023-02-16T18:48:19;60.30;;;28.85;;
75386;SDS011;63966;47.914;22.266;2023-02-16T18:51:23;52.30;;;23.77;;
75386;SDS011;63966;47.914;22.266;2023-02-16T18:54:30;41.67;;;19.73;;
75386;SDS011;63966;47.914;22.266;2023-02-16T18:57:34;41.88;;;20.73;;
75386;SDS011;63966;47.914;22.266;2023-02-16T19:00:37;45.58;;;21.45;;
75386;SDS011;63966;47.914;22.266;2023-02-16T19:03:41;44.15;;;21.75;;
75386;SDS011;63966;47.914;22.266;2023-02-16T19:06:45;48.43;;;23.07;;
75386;SDS011;63966;47.914;22.266;2023-02-16T19:09:49;51.37;;;23.27;;
75386;SDS011;63966;47.914;22.266;2023-02-16T19:12:53;48.70;;;22.63;;
75386;SDS011;63966;47.914;22.266;2023-02-16T19:15:57;47.25;;;21.67;;
75386;SDS011;63966;47.914;22.266;2023-02-16T19:19:01;47.25;;;22.10;;
75386;SDS011;63966;47.914;22.266;2023-02-16T19:22:04;42.57;;;21.23;;
75386;SDS011;63966;47.914;22.266;2023-02-16T19:25:08;42.30;;;21.07;;
75386;SDS011;63966;47.914;22.266;2023-02-16T19:28:12;41.65;;;19.80;;
75386;SDS011;63966;47.914;22.266;2023-02-16T19:31:17;42.22;;;20.73;;
75386;SDS011;63966;47.914;22.266;2023-02-16T19:34:31;39.85;;;19.38;;
75386;SDS011;63966;47.914;22.266;2023-02-16T19:37:35;42.43;;;19.70;;
75386;SDS011;63966;47.914;22.266;2023-02-16T19:40:39;37.73;;;18.40;;
75386;SDS011;63966;47.914;22.266;2023-02-16T19:43:44;42.55;;;20.02;;
75386;SDS011;63966;47.914;22.266;2023-02-16T19:46:48;42.50;;;20.50;;
75386;SDS011;63966;47.914;22.266;2023-02-16T19:49:51;44.17;;;21.58;;
75386;SDS011;63966;47.914;22.266;2023-02-16T19:52:56;44.67;;;21.80;;
75386;SDS011;63966;47.914;22.266;2023-02-16T19:56:02;44.80;;;20.83;;
75386;SDS011;63966;47.914;22.266;2023-02-16T19:59:09;41.28;;;21.00;;
75386;SDS011;63966;47.914;22.266;2023-02-16T20:02:13;43.60;;;19.92;;
75386;SDS011;63966;47.914;22.266;2023-02-16T20:05:17;40.42;;;19.08;;
75386;SDS011;63966;47.914;22.266;2023-02-16T20:08:21;43.70;;;20.63;;